createdAt,value
2018-05-31T00:01:39.234Z,2.07
2018-05-31T00:04:07.069Z,2.03
2018-05-31T00:06:34.960Z,2.20
2018-05-31T00:09:02.790Z,2.20
2018-05-31T00:11:30.597Z,1.90
2018-05-31T00:13:59.834Z,2.30
2018-05-31T00:16:27.661Z,2.60
2018-05-31T00:18:55.485Z,2.57
2018-05-31T00:21:23.398Z,2.30
2018-05-31T00:23:52.638Z,2.10
2018-05-31T00:26:20.478Z,2.63
2018-05-31T00:28:48.674Z,2.50
2018-05-31T00:31:16.494Z,2.33
2018-05-31T00:33:44.317Z,2.40
2018-05-31T00:36:12.696Z,3.00
2018-05-31T00:38:40.512Z,2.70
2018-05-31T00:41:08.341Z,2.30
2018-05-31T00:43:36.607Z,2.70
2018-05-31T00:46:04.430Z,2.70
2018-05-31T00:48:32.254Z,2.90
2018-05-31T00:51:00.149Z,2.93
2018-05-31T00:53:27.968Z,3.13
2018-05-31T00:56:02.690Z,2.80
2018-05-31T00:58:30.506Z,3.13
2018-05-31T01:00:58.338Z,3.00
2018-05-31T01:03:26.561Z,3.10
2018-05-31T01:05:54.388Z,3.40
2018-05-31T01:08:22.214Z,4.47
2018-05-31T01:10:50.097Z,11.47
2018-05-31T01:13:17.925Z,19.47
2018-05-31T01:15:45.742Z,22.43
2018-05-31T01:18:14.011Z,7.27
2018-05-31T01:20:41.831Z,4.87
2018-05-31T01:23:09.649Z,5.47
2018-05-31T01:25:38.293Z,8.77
2018-05-31T01:28:06.115Z,7.90
2018-05-31T01:30:33.933Z,6.90
2018-05-31T01:33:02.027Z,4.70
2018-05-31T01:35:29.851Z,5.70
2018-05-31T01:38:14.151Z,4.60
2018-05-31T01:40:41.974Z,3.47
2018-05-31T01:43:09.798Z,4.60
2018-05-31T01:45:38.172Z,3.27
2018-05-31T01:48:05.995Z,3.17
2018-05-31T01:50:33.814Z,3.10
2018-05-31T01:53:01.862Z,3.77
2018-05-31T01:55:29.688Z,3.40
2018-05-31T01:57:57.497Z,3.27
2018-05-31T02:00:26.182Z,3.40
2018-05-31T02:02:54.006Z,3.20
2018-05-31T02:05:21.820Z,3.10
2018-05-31T02:07:49.678Z,3.03
2018-05-31T02:10:17.507Z,2.87
2018-05-31T02:12:45.341Z,2.37
2018-05-31T02:15:13.481Z,3.30
2018-05-31T02:17:41.293Z,3.20
2018-05-31T02:20:09.114Z,2.80
2018-05-31T02:22:37.497Z,2.73
2018-05-31T02:25:05.314Z,3.00
2018-05-31T02:27:33.855Z,3.40
2018-05-31T02:30:01.738Z,3.00
2018-05-31T02:32:29.682Z,2.60
2018-05-31T02:34:57.520Z,5.90
2018-05-31T02:37:25.407Z,7.83
2018-05-31T02:39:53.234Z,4.53
2018-05-31T02:42:21.055Z,3.83
2018-05-31T02:44:49.074Z,4.03
2018-05-31T02:47:16.902Z,4.43
2018-05-31T02:49:44.726Z,4.37
2018-05-31T02:52:12.732Z,3.93
2018-05-31T02:54:40.548Z,4.40
2018-05-31T02:57:08.369Z,3.60
2018-05-31T02:59:36.237Z,3.37
2018-05-31T03:02:04.062Z,4.47
2018-05-31T03:04:31.879Z,3.80
2018-05-31T03:07:00.342Z,3.50
2018-05-31T03:09:28.153Z,4.00
2018-05-31T03:11:55.974Z,3.47
2018-05-31T03:14:24.042Z,4.03
2018-05-31T03:16:51.854Z,4.53
2018-05-31T03:19:19.661Z,3.80
2018-05-31T03:21:47.517Z,3.87
2018-05-31T03:24:15.351Z,3.80
2018-05-31T03:26:43.167Z,4.87
2018-05-31T03:29:12.181Z,4.73
2018-05-31T03:31:40.001Z,4.60
2018-05-31T03:34:07.821Z,3.90
2018-05-31T03:36:36.496Z,4.10
2018-05-31T03:39:04.329Z,5.70
2018-05-31T03:41:32.149Z,5.17
2018-05-31T03:44:00.191Z,4.20
2018-05-31T03:46:28.010Z,4.53
2018-05-31T03:48:55.833Z,4.00
2018-05-31T03:51:24.205Z,4.53
2018-05-31T03:53:52.021Z,5.30
2018-05-31T03:56:19.844Z,5.30
2018-05-31T03:58:47.711Z,4.33
2018-05-31T04:01:15.522Z,3.97
2018-05-31T04:03:43.339Z,4.73
2018-05-31T04:06:11.506Z,3.83
2018-05-31T04:08:39.317Z,4.43
2018-05-31T04:11:07.125Z,5.03
2018-05-31T04:13:35.214Z,4.20
2018-05-31T04:16:03.047Z,4.40
2018-05-31T04:18:30.875Z,6.43
2018-05-31T04:20:59.053Z,4.90
2018-05-31T04:23:26.873Z,4.70
2018-05-31T04:25:54.697Z,6.30
2018-05-31T04:28:22.824Z,6.63
2018-05-31T04:30:51.418Z,5.37
2018-05-31T04:33:19.242Z,5.23
2018-05-31T04:35:47.455Z,4.93
2018-05-31T04:38:15.294Z,5.33
2018-05-31T04:40:43.114Z,5.37
2018-05-31T04:43:10.999Z,4.60
2018-05-31T04:45:38.823Z,4.60
2018-05-31T04:48:06.657Z,4.37
2018-05-31T04:50:34.541Z,3.73
2018-05-31T04:53:02.374Z,3.83
2018-05-31T04:55:30.193Z,4.07
2018-05-31T04:57:58.468Z,4.30
2018-05-31T05:00:26.290Z,3.97
2018-05-31T05:02:54.140Z,4.53
2018-05-31T05:05:22.038Z,3.80
2018-05-31T05:07:49.866Z,3.90
2018-05-31T05:10:17.683Z,4.43
2018-05-31T05:12:45.769Z,4.60
2018-05-31T05:15:13.585Z,4.30
2018-05-31T05:17:41.401Z,4.20
2018-05-31T05:20:09.877Z,5.00
2018-05-31T05:22:37.698Z,4.80
2018-05-31T05:25:05.522Z,4.57
2018-05-31T05:27:33.409Z,4.90
2018-05-31T05:30:01.254Z,5.30
2018-05-31T05:32:30.188Z,6.30
2018-05-31T05:34:58.310Z,6.70
2018-05-31T05:37:26.142Z,6.27
2018-05-31T05:39:53.969Z,6.60
2018-05-31T05:42:22.734Z,7.00
2018-05-31T05:44:50.553Z,7.43
2018-05-31T05:47:18.381Z,7.60
2018-05-31T05:49:46.701Z,6.70
2018-05-31T05:52:14.529Z,7.60
2018-05-31T05:54:42.357Z,7.50
2018-05-31T05:57:10.456Z,7.27
2018-05-31T05:59:38.294Z,6.80
2018-05-31T06:02:06.129Z,7.40
2018-05-31T06:04:34.874Z,6.77
2018-05-31T06:07:02.704Z,7.07
2018-05-31T06:09:30.525Z,6.50
2018-05-31T06:11:58.474Z,6.57
2018-05-31T06:14:26.291Z,5.70
2018-05-31T06:16:54.110Z,5.40
2018-05-31T06:19:22.079Z,5.00
2018-05-31T06:21:49.903Z,4.70
2018-05-31T06:24:17.731Z,5.27
2018-05-31T06:26:50.322Z,3.20
2018-05-31T06:29:18.181Z,3.73
2018-05-31T06:31:46.008Z,3.43
2018-05-31T06:34:14.481Z,4.17
2018-05-31T06:36:42.298Z,3.63
2018-05-31T06:39:10.125Z,3.70
2018-05-31T06:41:38.410Z,3.87
2018-05-31T06:44:06.251Z,3.63
2018-05-31T06:46:34.057Z,3.83
2018-05-31T06:49:02.431Z,3.93
2018-05-31T06:51:30.245Z,4.30
2018-05-31T06:53:58.056Z,4.00
2018-05-31T06:56:26.636Z,4.73
2018-05-31T06:58:54.470Z,4.60
2018-05-31T07:01:22.293Z,4.00
2018-05-31T07:03:50.149Z,4.00
2018-05-31T07:06:17.966Z,3.90
2018-05-31T07:08:45.789Z,4.50
2018-05-31T07:11:14.160Z,4.10
2018-05-31T07:13:41.990Z,4.20
2018-05-31T07:16:09.804Z,3.57
2018-05-31T07:18:37.758Z,5.00
2018-05-31T07:21:05.582Z,4.53
2018-05-31T07:23:33.397Z,4.27
2018-05-31T07:26:01.403Z,3.77
2018-05-31T07:28:29.221Z,3.57
2018-05-31T07:30:57.046Z,3.90
2018-05-31T07:33:25.406Z,4.10
2018-05-31T07:35:54.057Z,3.90
2018-05-31T07:38:21.883Z,3.87
2018-05-31T07:40:49.744Z,4.55
2018-05-31T07:43:17.557Z,3.58
2018-05-31T07:45:45.371Z,3.60
2018-05-31T07:48:13.241Z,4.18
2018-05-31T07:50:41.056Z,4.40
2018-05-31T07:53:08.865Z,3.83
2018-05-31T07:55:36.990Z,3.92
2018-05-31T07:58:04.827Z,4.00
2018-05-31T08:00:32.669Z,4.25
2018-05-31T08:03:00.906Z,3.70
2018-05-31T08:05:28.727Z,3.95
2018-05-31T08:07:56.558Z,3.70
2018-05-31T08:10:24.702Z,4.12
2018-05-31T08:12:52.542Z,4.18
2018-05-31T08:15:20.365Z,4.30
2018-05-31T08:17:49.028Z,4.72
2018-05-31T08:20:16.848Z,4.65
2018-05-31T08:22:44.675Z,4.10
2018-05-31T08:25:12.932Z,4.95
2018-05-31T08:27:40.749Z,4.70
2018-05-31T08:30:08.575Z,4.60
2018-05-31T08:32:36.750Z,4.32
2018-05-31T08:35:04.571Z,4.00
2018-05-31T08:37:32.890Z,4.05
2018-05-31T08:40:01.533Z,4.50
2018-05-31T08:42:29.368Z,3.75
2018-05-31T08:44:57.198Z,3.72
2018-05-31T08:47:25.074Z,3.95
2018-05-31T08:49:52.898Z,4.00
2018-05-31T08:52:20.730Z,3.95
2018-05-31T08:54:48.612Z,4.53
2018-05-31T08:57:16.444Z,4.30
2018-05-31T08:59:44.301Z,4.10
2018-05-31T09:02:12.382Z,3.83
2018-05-31T09:04:40.214Z,3.45
2018-05-31T09:07:08.026Z,3.53
2018-05-31T09:09:35.894Z,3.28
2018-05-31T09:12:03.731Z,4.12
2018-05-31T09:14:31.577Z,3.53
2018-05-31T09:16:59.678Z,3.92
2018-05-31T09:19:27.490Z,3.12
2018-05-31T09:21:55.325Z,3.60
2018-05-31T09:24:23.789Z,3.65
2018-05-31T09:26:51.614Z,3.90
2018-05-31T09:29:19.437Z,3.78
2018-05-31T09:31:47.500Z,3.33
2018-05-31T09:34:15.320Z,3.30
2018-05-31T09:36:43.142Z,3.85
2018-05-31T09:39:11.974Z,3.58
2018-05-31T09:41:39.793Z,3.42
2018-05-31T09:44:07.623Z,3.20
2018-05-31T09:46:36.266Z,3.40
2018-05-31T09:49:04.066Z,3.70
2018-05-31T09:51:31.893Z,3.50
2018-05-31T09:53:59.949Z,3.20
2018-05-31T09:56:27.806Z,3.40
2018-05-31T09:58:56.558Z,3.65
2018-05-31T10:01:24.676Z,3.60
2018-05-31T10:03:52.502Z,3.50
2018-05-31T10:06:20.318Z,3.42
2018-05-31T10:08:49.199Z,3.58
2018-05-31T10:11:17.025Z,3.22
2018-05-31T10:13:44.851Z,3.42
2018-05-31T10:16:12.717Z,3.40
2018-05-31T10:18:40.534Z,3.70
2018-05-31T10:21:08.366Z,3.78
2018-05-31T10:23:36.406Z,9.82
2018-05-31T10:26:04.245Z,4.03
2018-05-31T10:28:32.068Z,29.60
2018-05-31T10:31:00.216Z,32.85
2018-05-31T10:33:28.044Z,12.77
2018-05-31T10:35:55.886Z,3.55
2018-05-31T10:38:23.789Z,3.62
2018-05-31T10:40:52.810Z,3.33
2018-05-31T10:43:20.625Z,3.10
2018-05-31T10:45:48.520Z,3.40
2018-05-31T10:48:16.315Z,3.25
2018-05-31T10:50:44.149Z,2.95
2018-05-31T10:53:13.815Z,2.95
2018-05-31T10:55:41.661Z,3.22
2018-05-31T10:58:09.514Z,3.37
2018-05-31T11:00:37.573Z,3.37
2018-05-31T11:03:05.403Z,2.95
2018-05-31T11:05:33.229Z,2.60
2018-05-31T11:08:02.426Z,2.92
2018-05-31T11:10:30.262Z,3.05
2018-05-31T11:12:58.074Z,2.87
2018-05-31T11:15:25.974Z,3.00
2018-05-31T11:17:53.802Z,2.70
2018-05-31T11:20:21.678Z,3.20
2018-05-31T11:22:49.818Z,2.80
2018-05-31T11:25:17.648Z,2.72
2018-05-31T11:27:45.485Z,2.65
2018-05-31T11:30:14.456Z,2.97
2018-05-31T11:32:42.286Z,2.80
2018-05-31T11:35:10.106Z,2.42
2018-05-31T11:37:38.464Z,2.70
2018-05-31T11:40:06.311Z,3.30
2018-05-31T11:42:35.542Z,2.80
2018-05-31T11:45:03.405Z,2.65
2018-05-31T11:47:31.220Z,2.85
2018-05-31T11:49:59.056Z,2.90
2018-05-31T11:52:27.613Z,2.80
2018-05-31T11:54:55.438Z,2.97
2018-05-31T11:57:23.263Z,2.95
2018-05-31T11:59:51.135Z,2.83
2018-05-31T12:02:18.951Z,2.75
2018-05-31T12:04:46.774Z,2.90
2018-05-31T12:07:14.690Z,2.58
2018-05-31T12:09:42.512Z,2.65
2018-05-31T12:12:10.402Z,2.53
2018-05-31T12:14:39.032Z,2.50
2018-05-31T12:17:06.859Z,2.20
2018-05-31T12:19:34.709Z,3.20
2018-05-31T12:22:02.594Z,2.67
2018-05-31T12:24:30.413Z,2.47
2018-05-31T12:26:58.234Z,2.90
2018-05-31T12:29:26.084Z,2.50
2018-05-31T12:31:53.898Z,2.50
2018-05-31T12:34:21.718Z,2.42
2018-05-31T12:36:50.662Z,2.65
2018-05-31T12:39:18.478Z,2.30
2018-05-31T12:41:46.299Z,2.30
2018-05-31T12:44:15.398Z,2.20
2018-05-31T12:46:43.233Z,2.17
2018-05-31T12:49:11.058Z,2.58
2018-05-31T12:51:38.917Z,2.30
2018-05-31T12:54:06.738Z,2.10
2018-05-31T12:56:34.565Z,2.30
2018-05-31T12:59:03.462Z,1.95
2018-05-31T13:01:31.278Z,1.75
2018-05-31T13:03:59.085Z,1.92
2018-05-31T13:06:27.206Z,1.60
2018-05-31T13:08:55.018Z,1.87
2018-05-31T13:11:22.848Z,1.80
2018-05-31T13:13:50.847Z,1.58
2018-05-31T13:16:18.662Z,1.60
2018-05-31T13:18:46.536Z,1.40
2018-05-31T13:21:15.042Z,1.40
2018-05-31T13:23:42.859Z,1.62
2018-05-31T13:26:10.688Z,1.92
2018-05-31T13:28:38.740Z,1.70
2018-05-31T13:31:06.570Z,1.75
2018-05-31T13:33:34.397Z,1.70
2018-05-31T13:36:02.406Z,1.62
2018-05-31T13:38:30.236Z,1.75
2018-05-31T13:40:58.049Z,1.90
2018-05-31T13:43:26.965Z,1.90
2018-05-31T13:45:56.003Z,1.70
2018-05-31T13:48:23.835Z,1.77
2018-05-31T13:50:52.102Z,2.10
2018-05-31T13:53:19.926Z,1.80
2018-05-31T13:55:47.761Z,1.83
2018-05-31T13:58:16.003Z,1.90
2018-05-31T14:00:43.822Z,1.83
2018-05-31T14:03:11.648Z,1.80
2018-05-31T14:05:40.323Z,1.90
2018-05-31T14:08:10.459Z,2.20
2018-05-31T14:10:38.290Z,2.10
2018-05-31T14:13:06.494Z,2.17
2018-05-31T14:15:34.372Z,2.12
2018-05-31T14:18:02.150Z,2.05
2018-05-31T14:20:30.035Z,1.75
2018-05-31T14:22:57.879Z,1.90
2018-05-31T14:25:25.717Z,1.80
2018-05-31T14:27:53.918Z,1.92
2018-05-31T14:30:21.776Z,2.12
2018-05-31T14:32:49.631Z,2.40
2018-05-31T14:35:17.532Z,2.33
2018-05-31T14:37:45.350Z,2.10
2018-05-31T14:40:13.178Z,2.30
2018-05-31T14:42:41.298Z,1.90
2018-05-31T14:45:09.134Z,1.90
2018-05-31T14:47:37.562Z,2.28
2018-05-31T14:50:05.626Z,1.70
2018-05-31T14:52:33.462Z,2.40
2018-05-31T14:55:01.275Z,2.00
2018-05-31T14:57:29.151Z,2.47
2018-05-31T14:59:56.974Z,2.40
2018-05-31T15:02:24.810Z,1.90
2018-05-31T15:04:52.925Z,2.00
2018-05-31T15:07:20.772Z,2.50
2018-05-31T15:09:50.375Z,2.17
2018-05-31T15:12:18.231Z,2.20
2018-05-31T15:14:46.059Z,2.15
2018-05-31T15:17:13.894Z,2.50
2018-05-31T15:19:41.803Z,2.22
2018-05-31T15:22:09.645Z,2.20
2018-05-31T15:24:37.473Z,2.47
2018-05-31T15:27:06.427Z,2.40
2018-05-31T15:29:34.267Z,2.28
2018-05-31T15:32:02.121Z,2.33
2018-05-31T15:34:30.200Z,2.70
2018-05-31T15:36:58.024Z,2.17
2018-05-31T15:39:25.865Z,2.15
2018-05-31T15:41:54.008Z,2.28
2018-05-31T15:44:21.835Z,2.45
2018-05-31T15:46:49.689Z,2.05
2018-05-31T15:49:19.666Z,2.00
2018-05-31T15:51:47.509Z,2.17
2018-05-31T15:54:15.351Z,2.37
2018-05-31T15:56:43.220Z,2.08
2018-05-31T15:59:11.053Z,1.98
2018-05-31T16:01:38.885Z,2.22
2018-05-31T16:04:07.186Z,2.05
2018-05-31T16:06:35.040Z,2.55
2018-05-31T16:09:03.163Z,2.20
2018-05-31T16:11:32.106Z,2.20
2018-05-31T16:13:59.938Z,1.85
2018-05-31T16:16:27.767Z,2.33
2018-05-31T16:18:56.133Z,2.20
2018-05-31T16:21:24.002Z,2.40
2018-05-31T16:23:51.851Z,2.50
2018-05-31T16:26:19.882Z,2.03
2018-05-31T16:28:47.718Z,2.20
2018-05-31T16:31:15.557Z,1.90
2018-05-31T16:33:44.349Z,2.08
2018-05-31T16:36:12.171Z,2.47
2018-05-31T16:38:40.024Z,2.17
2018-05-31T16:41:08.759Z,2.20
2018-05-31T16:43:36.578Z,2.45
2018-05-31T16:46:04.417Z,2.30
2018-05-31T16:48:32.671Z,2.20
2018-05-31T16:51:01.270Z,2.00
2018-05-31T16:53:29.102Z,2.55
2018-05-31T16:55:57.395Z,2.30
2018-05-31T16:58:25.230Z,2.40
2018-05-31T17:00:53.073Z,2.60
2018-05-31T17:03:21.118Z,2.55
2018-05-31T17:05:48.936Z,2.20
2018-05-31T17:08:16.774Z,2.15
2018-05-31T17:10:44.810Z,2.40
2018-05-31T17:13:12.748Z,2.20
2018-05-31T17:15:40.571Z,2.03
2018-05-31T17:18:08.710Z,1.70
2018-05-31T17:20:36.521Z,2.15
2018-05-31T17:23:04.367Z,1.95
2018-05-31T17:25:32.424Z,1.98
2018-05-31T17:28:00.266Z,2.10
2018-05-31T17:30:28.115Z,2.12
2018-05-31T17:32:56.014Z,2.10
2018-05-31T17:35:23.838Z,1.98
2018-05-31T17:37:51.658Z,1.98
2018-05-31T17:40:20.243Z,2.30
2018-05-31T17:42:48.075Z,1.80
2018-05-31T17:45:15.899Z,2.12
2018-05-31T17:47:45.070Z,1.90
2018-05-31T17:50:12.890Z,2.10
2018-05-31T17:52:41.024Z,1.77
2018-05-31T17:55:09.624Z,1.92
2018-05-31T17:57:37.452Z,1.90
2018-05-31T18:00:05.279Z,1.83
2018-05-31T18:02:33.807Z,1.95
2018-05-31T18:05:01.685Z,1.75
2018-05-31T18:07:31.587Z,2.25
2018-05-31T18:09:59.513Z,2.00
2018-05-31T18:12:27.318Z,1.83
2018-05-31T18:14:55.197Z,1.77
2018-05-31T18:17:23.474Z,1.62
2018-05-31T18:19:51.302Z,1.80
2018-05-31T18:22:19.136Z,1.77
2018-05-31T18:24:47.590Z,1.80
2018-05-31T18:27:15.458Z,1.80
2018-05-31T18:29:43.309Z,1.67
2018-05-31T18:32:11.178Z,1.70
2018-05-31T18:34:39.048Z,1.58
2018-05-31T18:37:06.854Z,1.50
2018-05-31T18:39:34.894Z,1.77
2018-05-31T18:42:02.726Z,1.55
2018-05-31T18:44:30.547Z,1.40
2018-05-31T18:46:58.702Z,1.80
2018-05-31T18:49:26.547Z,2.00
2018-05-31T18:51:54.426Z,1.67
2018-05-31T18:54:23.009Z,1.90
2018-05-31T18:56:50.842Z,1.73
2018-05-31T18:59:18.695Z,1.70
2018-05-31T19:01:46.590Z,1.67
2018-05-31T19:04:14.419Z,1.90
2018-05-31T19:06:42.271Z,1.30
2018-05-31T19:09:17.400Z,1.60
2018-05-31T19:11:45.235Z,1.50
2018-05-31T19:14:13.082Z,1.70
2018-05-31T19:16:41.071Z,1.50
2018-05-31T19:19:15.112Z,1.62
2018-05-31T19:21:43.642Z,1.70
2018-05-31T19:24:17.525Z,1.90
2018-05-31T19:26:45.773Z,1.90
2018-05-31T19:29:13.654Z,1.90
2018-05-31T19:31:41.465Z,2.05
2018-05-31T19:34:09.787Z,2.15
2018-05-31T19:36:43.763Z,1.80
2018-05-31T19:39:11.878Z,2.17
2018-05-31T19:41:39.712Z,2.10
2018-05-31T19:44:14.887Z,2.10
2018-05-31T19:46:42.774Z,2.17
2018-05-31T19:49:10.632Z,2.20
2018-05-31T19:51:44.943Z,2.15
2018-05-31T19:54:12.796Z,2.42
2018-05-31T19:56:41.637Z,2.17
2018-05-31T19:59:16.638Z,2.25
2018-05-31T20:01:50.494Z,2.42
2018-05-31T20:04:19.010Z,2.10
2018-05-31T20:06:46.858Z,2.45
2018-05-31T20:09:14.706Z,2.03
2018-05-31T20:11:42.623Z,2.60
2018-05-31T20:14:10.469Z,2.40
2018-05-31T20:16:38.322Z,2.80
2018-05-31T20:19:07.040Z,2.60
2018-05-31T20:21:34.897Z,2.30
2018-05-31T20:24:02.749Z,2.17
2018-05-31T20:26:30.761Z,2.50
2018-05-31T20:28:58.559Z,2.60
2018-05-31T20:31:26.395Z,2.95
2018-05-31T20:33:54.305Z,2.72
2018-05-31T20:36:22.138Z,2.70
2018-05-31T20:38:50.033Z,2.45
2018-05-31T20:41:18.970Z,2.83
2018-05-31T20:43:46.830Z,2.60
2018-05-31T20:46:14.650Z,2.40
2018-05-31T20:48:42.546Z,2.80
2018-05-31T20:51:10.420Z,2.67
2018-05-31T20:53:38.215Z,2.55
2018-05-31T20:56:06.138Z,2.72
2018-05-31T20:58:35.507Z,2.90
2018-05-31T21:01:03.346Z,2.75
2018-05-31T21:03:31.613Z,3.03
2018-05-31T21:05:59.491Z,2.72
2018-05-31T21:08:27.325Z,2.83
2018-05-31T21:10:55.908Z,3.10
2018-05-31T21:13:23.731Z,2.80
2018-05-31T21:15:51.570Z,2.80
2018-05-31T21:18:21.074Z,2.90
2018-05-31T21:20:48.910Z,3.25
2018-05-31T21:23:18.545Z,3.15
2018-05-31T21:25:46.409Z,3.03
2018-05-31T21:28:14.231Z,3.03
2018-05-31T21:30:42.051Z,2.87
2018-05-31T21:33:10.427Z,3.00
2018-05-31T21:35:38.390Z,3.08
2018-05-31T21:38:06.121Z,3.37
2018-05-31T21:40:34.891Z,3.08
2018-05-31T21:43:02.731Z,2.80
2018-05-31T21:45:30.565Z,3.35
2018-05-31T21:47:58.531Z,3.28
2018-05-31T21:50:26.376Z,2.97
2018-05-31T21:52:54.199Z,2.90
2018-05-31T21:55:22.350Z,3.20
2018-05-31T21:57:50.171Z,3.67
2018-05-31T22:00:22.283Z,3.30
2018-05-31T22:02:50.102Z,3.00
2018-05-31T22:05:17.913Z,3.50
2018-05-31T22:07:45.993Z,3.37
2018-05-31T22:10:13.809Z,2.97
2018-05-31T22:12:41.624Z,3.05
2018-05-31T22:15:09.687Z,3.40
2018-05-31T22:17:37.507Z,2.87
2018-05-31T22:20:05.333Z,3.10
2018-05-31T22:22:34.215Z,3.35
2018-05-31T22:25:02.084Z,3.37
2018-05-31T22:27:29.914Z,3.45
2018-05-31T22:29:57.914Z,3.25
2018-05-31T22:32:25.733Z,3.00
2018-05-31T22:34:53.558Z,2.40
2018-05-31T22:37:21.621Z,2.10
2018-05-31T22:39:49.458Z,1.90
2018-05-31T22:42:17.286Z,1.70
2018-05-31T22:44:46.345Z,2.53
2018-05-31T22:47:14.166Z,2.30
2018-05-31T22:49:41.994Z,4.03
2018-05-31T22:52:10.062Z,4.57
2018-05-31T22:54:37.894Z,6.47
2018-05-31T22:57:05.735Z,5.07
2018-05-31T22:59:33.637Z,5.40
2018-05-31T23:02:02.638Z,7.13
2018-05-31T23:04:30.473Z,6.07
2018-05-31T23:06:58.590Z,2.80
